Time;durP1;ratioP1;P1;durP2;ratioP2;P2;SDS_P1;SDS_P2;PMS_P1;PMS_P2;Temp;Humidity;BMP_temperature;BMP_pressure;BME280_temperature;BME280_humidity;BME280_pressure;Samples;Min_cycle;Max_cycle;Signal;HPM_P1;HPM_P2
2023/09/16 00:02:10;;;;;;;7.05;6.35;;;;;;;;;;5033149;28;20103;-87
2023/09/16 00:04:38;;;;;;;7.57;6.63;;;;;;;;;;5034157;28;20049;-87
2023/09/16 00:07:05;;;;;;;8.48;6.78;;;;;;;;;;5032557;28;20136;-87
2023/09/16 00:09:33;;;;;;;7.63;6.90;;;;;;;;;;5032656;28;20045;-87
2023/09/16 00:12:01;;;;;;;11.23;7.30;;;;;;;;;;5029645;28;20050;-87
2023/09/16 00:14:29;;;;;;;6.68;6.18;;;;;;;;;;5064100;28;20065;-87
2023/09/16 00:17:00;;;;;;;7.68;6.97;;;;;;;;;;5020712;28;20054;-87
2023/09/16 00:19:27;;;;;;;8.07;7.15;;;;;;;;;;5033561;28;20045;-87
2023/09/16 00:21:55;;;;;;;7.15;6.00;;;;;;;;;;5032487;28;20432;-87
2023/09/16 00:24:23;;;;;;;7.47;6.78;;;;;;;;;;5032779;28;20120;-87
2023/09/16 00:26:50;;;;;;;7.97;7.18;;;;;;;;;;5032431;28;20395;-87
2023/09/16 00:29:17;;;;;;;7.78;6.90;;;;;;;;;;5033691;28;20065;-87
2023/09/16 00:31:45;;;;;;;7.95;6.60;;;;;;;;;;5032141;28;20110;-88
2023/09/16 00:34:12;;;;;;;7.25;6.65;;;;;;;;;;5031890;28;20064;-88
2023/09/16 00:36:40;;;;;;;7.57;6.72;;;;;;;;;;5032331;28;20096;-87
2023/09/16 00:39:07;;;;;;;7.38;6.78;;;;;;;;;;5032227;28;20494;-87
2023/09/16 00:41:35;;;;;;;13.15;7.35;;;;;;;;;;5032801;28;20073;-87
2023/09/16 00:44:02;;;;;;;7.97;5.88;;;;;;;;;;5033554;28;20053;-87
2023/09/16 00:46:29;;;;;;;7.05;6.32;;;;;;;;;;5032320;28;20053;-87
2023/09/16 00:48:57;;;;;;;8.95;6.70;;;;;;;;;;5033386;28;20060;-86
2023/09/16 00:51:24;;;;;;;10.98;7.53;;;;;;;;;;5033331;28;20052;-87
2023/09/16 00:53:52;;;;;;;7.20;6.60;;;;;;;;;;5033226;28;20049;-87
2023/09/16 00:56:22;;;;;;;7.57;6.85;;;;;;;;;;5032239;28;20406;-87
2023/09/16 00:58:49;;;;;;;7.22;6.18;;;;;;;;;;5032152;28;20078;-87
2023/09/16 01:01:17;;;;;;;6.43;5.93;;;;;;;;;;5033063;28;20080;-87
2023/09/16 01:03:45;;;;;;;8.05;7.13;;;;;;;;;;5033019;28;20601;-87
2023/09/16 01:06:16;;;;;;;7.75;6.95;;;;;;;;;;5033383;28;20099;-86
2023/09/16 01:08:44;;;;;;;8.18;7.13;;;;;;;;;;5032131;28;20057;-87
2023/09/16 01:11:12;;;;;;;7.95;7.20;;;;;;;;;;5025152;28;20056;-87
2023/09/16 01:13:39;;;;;;;9.00;7.53;;;;;;;;;;5030101;28;20541;-87
2023/09/16 01:16:26;;;;;;;8.18;7.38;;;;;;;;;;5028823;28;20116;-87
2023/09/16 01:18:57;;;;;;;8.15;7.35;;;;;;;;;;5017992;28;20059;-87
2023/09/16 01:21:25;;;;;;;8.02;7.30;;;;;;;;;;5033040;28;20061;-87
2023/09/16 01:24:11;;;;;;;8.98;8.07;;;;;;;;;;5032036;28;20053;-87
2023/09/16 01:26:38;;;;;;;8.55;7.22;;;;;;;;;;5032029;28;20045;-88
2023/09/16 01:29:06;;;;;;;8.02;7.20;;;;;;;;;;5028957;28;20049;-88
2023/09/16 01:31:33;;;;;;;9.25;7.53;;;;;;;;;;5061490;28;20041;-88
2023/09/16 01:34:02;;;;;;;9.90;8.02;;;;;;;;;;5040166;28;20085;-87
2023/09/16 01:36:30;;;;;;;8.20;7.40;;;;;;;;;;5032625;28;20045;-87
2023/09/16 01:39:00;;;;;;;7.88;6.97;;;;;;;;;;5031607;28;20061;-87
2023/09/16 01:41:29;;;;;;;8.65;7.35;;;;;;;;;;5031705;28;20045;-88
2023/09/16 01:43:56;;;;;;;9.20;7.65;;;;;;;;;;5031637;28;20050;-87
2023/09/16 01:46:24;;;;;;;10.75;7.65;;;;;;;;;;5035460;28;20053;-87
2023/09/16 01:48:51;;;;;;;10.40;8.05;;;;;;;;;;5036054;28;20067;-88
2023/09/16 01:51:18;;;;;;;8.10;7.35;;;;;;;;;;5035455;28;20050;-88
2023/09/16 01:53:46;;;;;;;8.00;7.13;;;;;;;;;;5028200;28;20049;-88
2023/09/16 01:56:13;;;;;;;10.18;7.72;;;;;;;;;;5036276;28;20107;-88
2023/09/16 01:58:40;;;;;;;8.23;7.20;;;;;;;;;;5035247;28;20061;-88
2023/09/16 02:01:11;;;;;;;11.23;7.47;;;;;;;;;;5036048;28;20100;-87
2023/09/16 02:03:38;;;;;;;9.80;7.93;;;;;;;;;;5034710;28;20041;-87
2023/09/16 02:06:06;;;;;;;10.77;8.25;;;;;;;;;;5035963;28;20525;-87
2023/09/16 02:08:34;;;;;;;7.75;7.05;;;;;;;;;;5035612;28;20083;-87
2023/09/16 02:11:02;;;;;;;7.47;6.78;;;;;;;;;;5031251;28;20052;-88
2023/09/16 02:13:32;;;;;;;9.57;7.13;;;;;;;;;;5048904;28;20050;-86
2023/09/16 02:15:59;;;;;;;7.45;6.40;;;;;;;;;;5034593;28;20091;-87
2023/09/16 02:18:27;;;;;;;9.23;7.45;;;;;;;;;;5034468;28;20127;-87
2023/09/16 02:20:54;;;;;;;11.52;7.43;;;;;;;;;;5034442;28;20053;-88
2023/09/16 02:23:22;;;;;;;8.30;7.32;;;;;;;;;;5026493;28;20078;-87
2023/09/16 02:25:49;;;;;;;9.82;7.72;;;;;;;;;;5034392;28;20129;-88
2023/09/16 02:28:16;;;;;;;7.65;6.95;;;;;;;;;;5035391;28;20136;-86
2023/09/16 02:30:43;;;;;;;8.75;7.38;;;;;;;;;;5034213;28;20052;-87
2023/09/16 02:33:11;;;;;;;9.38;7.50;;;;;;;;;;5034329;28;20058;-87
2023/09/16 02:35:39;;;;;;;10.55;7.90;;;;;;;;;;5035322;28;20083;-87
2023/09/16 02:38:07;;;;;;;8.63;7.10;;;;;;;;;;5034351;28;20096;-86
2023/09/16 02:40:34;;;;;;;10.77;8.35;;;;;;;;;;5034234;28;20513;-87
2023/09/16 02:43:01;;;;;;;8.50;7.35;;;;;;;;;;5034124;28;20418;-87
2023/09/16 02:45:29;;;;;;;9.70;7.93;;;;;;;;;;5034870;28;20049;-87
2023/09/16 02:47:56;;;;;;;11.98;8.57;;;;;;;;;;5040180;28;20105;-87
2023/09/16 02:50:23;;;;;;;10.38;7.30;;;;;;;;;;5049357;28;20046;-87
2023/09/16 02:52:50;;;;;;;10.07;8.25;;;;;;;;;;5034381;28;20489;-87
2023/09/16 02:55:18;;;;;;;9.93;8.93;;;;;;;;;;5034774;28;20053;-88
2023/09/16 02:57:45;;;;;;;14.73;8.70;;;;;;;;;;5025489;28;20064;-87
2023/09/16 03:00:12;;;;;;;9.90;8.27;;;;;;;;;;5033671;28;20042;-88
2023/09/16 03:02:40;;;;;;;10.73;8.63;;;;;;;;;;5033651;28;20314;-87
2023/09/16 03:05:07;;;;;;;11.23;8.55;;;;;;;;;;5033705;28;20049;-87
2023/09/16 03:07:34;;;;;;;9.32;7.72;;;;;;;;;;5032086;28;20502;-86
2023/09/16 03:10:02;;;;;;;7.57;6.88;;;;;;;;;;5033525;28;20490;-87
2023/09/16 03:12:29;;;;;;;12.48;7.75;;;;;;;;;;5034496;28;20444;-86
2023/09/16 03:14:57;;;;;;;11.95;7.25;;;;;;;;;;5033087;28;20079;-86
2023/09/16 03:17:24;;;;;;;8.32;7.45;;;;;;;;;;5033311;28;20379;-87
2023/09/16 03:19:51;;;;;;;8.63;7.82;;;;;;;;;;5033315;28;20049;-87
2023/09/16 03:22:18;;;;;;;17.15;9.02;;;;;;;;;;5033432;28;20049;-86
2023/09/16 03:24:46;;;;;;;8.70;7.65;;;;;;;;;;5024889;28;20107;-86
2023/09/16 03:27:13;;;;;;;11.68;7.63;;;;;;;;;;5033313;28;20486;-87
2023/09/16 03:29:40;;;;;;;11.30;7.82;;;;;;;;;;5034274;28;20594;-87
2023/09/16 03:32:08;;;;;;;11.60;7.60;;;;;;;;;;5033218;28;20042;-86
2023/09/16 03:34:35;;;;;;;8.85;7.28;;;;;;;;;;5033962;28;20126;-87
2023/09/16 03:37:02;;;;;;;10.10;7.30;;;;;;;;;;5033376;28;20054;-87
2023/09/16 03:39:30;;;;;;;11.30;8.32;;;;;;;;;;5048980;28;20424;-86
2023/09/16 03:41:58;;;;;;;13.15;7.53;;;;;;;;;;5036223;28;20076;-86
2023/09/16 03:44:25;;;;;;;9.10;7.28;;;;;;;;;;5036161;28;20088;-87
2023/09/16 03:46:52;;;;;;;17.05;7.88;;;;;;;;;;5036493;28;20080;-87
2023/09/16 03:49:19;;;;;;;8.30;7.50;;;;;;;;;;5036480;28;20413;-87
2023/09/16 03:51:47;;;;;;;9.85;7.18;;;;;;;;;;5036454;28;20481;-87
2023/09/16 03:54:14;;;;;;;7.88;7.13;;;;;;;;;;5036296;28;20408;-87
2023/09/16 03:56:41;;;;;;;9.50;7.90;;;;;;;;;;5053298;28;20041;-87
2023/09/16 03:59:09;;;;;;;12.70;8.52;;;;;;;;;;5036038;28;20088;-87
2023/09/16 04:01:36;;;;;;;9.32;7.75;;;;;;;;;;5036291;28;20056;-87
2023/09/16 04:04:04;;;;;;;9.57;7.70;;;;;;;;;;5036730;28;20347;-87
2023/09/16 04:06:32;;;;;;;7.40;6.75;;;;;;;;;;5052930;28;20025;-87
2023/09/16 04:09:00;;;;;;;14.18;7.43;;;;;;;;;;5039367;28;20048;-87
2023/09/16 04:11:27;;;;;;;8.30;7.55;;;;;;;;;;5035962;28;20049;-87
2023/09/16 04:13:55;;;;;;;11.52;8.07;;;;;;;;;;5035848;28;20107;-86
2023/09/16 04:16:25;;;;;;;11.30;8.73;;;;;;;;;;5032711;28;20507;-87
2023/09/16 04:18:53;;;;;;;11.07;7.97;;;;;;;;;;5035633;28;20394;-86
2023/09/16 04:21:20;;;;;;;8.75;7.75;;;;;;;;;;5053041;28;20064;-87
2023/09/16 04:23:48;;;;;;;9.48;8.32;;;;;;;;;;5053192;28;20081;-86
2023/09/16 04:26:16;;;;;;;12.30;8.48;;;;;;;;;;5053234;28;20049;-87
2023/09/16 04:28:43;;;;;;;10.13;7.82;;;;;;;;;;5035478;28;20076;-86
2023/09/16 04:31:10;;;;;;;12.27;7.88;;;;;;;;;;5053072;28;20175;-87
2023/09/16 04:33:38;;;;;;;10.02;7.80;;;;;;;;;;5053145;28;20049;-87
2023/09/16 04:36:06;;;;;;;11.95;8.18;;;;;;;;;;5052870;28;20049;-87
2023/09/16 04:38:34;;;;;;;7.97;7.18;;;;;;;;;;5035198;28;20056;-87
2023/09/16 04:41:01;;;;;;;11.05;7.80;;;;;;;;;;5052957;28;20079;-87
2023/09/16 04:43:28;;;;;;;9.57;8.57;;;;;;;;;;5035551;28;20049;-87
2023/09/16 04:45:55;;;;;;;12.35;8.55;;;;;;;;;;5032017;28;20042;-87
2023/09/16 04:48:23;;;;;;;9.32;7.95;;;;;;;;;;5048638;28;20053;-86
2023/09/16 04:50:50;;;;;;;10.70;9.60;;;;;;;;;;5035456;28;20119;-87
2023/09/16 04:53:18;;;;;;;10.13;8.52;;;;;;;;;;5035478;28;20049;-86
2023/09/16 04:55:45;;;;;;;9.32;7.88;;;;;;;;;;5044556;28;20052;-86
2023/09/16 04:58:13;;;;;;;14.52;9.15;;;;;;;;;;5035498;28;20049;-87
2023/09/16 05:00:41;;;;;;;12.70;8.73;;;;;;;;;;5035011;28;20165;-86
2023/09/16 05:03:08;;;;;;;11.13;9.45;;;;;;;;;;5032199;28;20045;-87
2023/09/16 05:05:36;;;;;;;12.07;8.95;;;;;;;;;;5051471;28;20271;-86
2023/09/16 05:08:03;;;;;;;14.65;9.25;;;;;;;;;;5035385;28;20112;-87
2023/09/16 05:10:30;;;;;;;9.60;8.38;;;;;;;;;;5051272;28;20045;-87
2023/09/16 05:12:57;;;;;;;9.93;8.63;;;;;;;;;;5028801;28;20477;-87
2023/09/16 05:15:26;;;;;;;11.65;9.57;;;;;;;;;;5032293;28;20149;-87
2023/09/16 05:17:54;;;;;;;9.63;8.63;;;;;;;;;;5052552;28;20512;-87
2023/09/16 05:20:21;;;;;;;10.90;9.35;;;;;;;;;;5036778;28;20072;-86
2023/09/16 05:22:49;;;;;;;14.82;9.07;;;;;;;;;;5044576;28;20036;-87
2023/09/16 05:25:16;;;;;;;11.07;8.70;;;;;;;;;;5052427;28;20140;-86
2023/09/16 05:27:44;;;;;;;11.40;9.52;;;;;;;;;;5056915;28;20140;-87
2023/09/16 05:30:11;;;;;;;10.70;9.43;;;;;;;;;;5038990;28;20067;-87
2023/09/16 05:32:38;;;;;;;16.45;10.60;;;;;;;;;;5030747;28;20046;-87
2023/09/16 05:35:06;;;;;;;13.30;9.57;;;;;;;;;;5038737;28;20136;-87
2023/09/16 05:37:33;;;;;;;15.32;9.82;;;;;;;;;;5056185;28;20099;-87
2023/09/16 05:40:00;;;;;;;15.25;9.23;;;;;;;;;;5032120;28;20135;-87
2023/09/16 05:42:28;;;;;;;12.15;9.60;;;;;;;;;;5055899;28;20503;-87
2023/09/16 05:44:55;;;;;;;13.25;9.32;;;;;;;;;;5038506;28;20080;-87
2023/09/16 05:47:22;;;;;;;9.98;8.82;;;;;;;;;;5056289;28;20057;-87
2023/09/16 05:49:50;;;;;;;10.35;8.15;;;;;;;;;;5056241;28;20049;-87
2023/09/16 05:52:17;;;;;;;12.95;9.43;;;;;;;;;;5038467;28;20053;-86
2023/09/16 05:54:46;;;;;;;11.10;9.02;;;;;;;;;;5055590;28;20049;-86
2023/09/16 05:57:13;;;;;;;14.23;9.40;;;;;;;;;;5038452;28;20549;-87
2023/09/16 05:59:40;;;;;;;13.18;9.70;;;;;;;;;;5056054;28;20060;-87
2023/09/16 06:02:07;;;;;;;19.15;11.93;;;;;;;;;;5056128;28;20045;-87
2023/09/16 06:04:35;;;;;;;18.80;10.60;;;;;;;;;;5056027;28;20075;-87
2023/09/16 06:07:02;;;;;;;19.85;11.82;;;;;;;;;;5038365;28;20133;-88
2023/09/16 06:09:30;;;;;;;17.48;10.63;;;;;;;;;;5036055;28;20072;-87
2023/09/16 06:11:57;;;;;;;20.35;12.40;;;;;;;;;;5038434;28;20107;-87
2023/09/16 06:14:24;;;;;;;18.83;11.52;;;;;;;;;;5038089;28;20099;-88
2023/09/16 06:16:52;;;;;;;16.48;11.48;;;;;;;;;;5055825;28;20102;-88
2023/09/16 06:19:19;;;;;;;12.20;9.00;;;;;;;;;;5038170;28;20083;-88
2023/09/16 06:21:46;;;;;;;19.38;9.43;;;;;;;;;;5038161;28;20049;-88
2023/09/16 06:24:14;;;;;;;10.65;8.20;;;;;;;;;;5040090;28;20060;-89
2023/09/16 06:26:41;;;;;;;12.90;6.95;;;;;;;;;;5037797;28;20486;-89
2023/09/16 06:29:08;;;;;;;20.90;7.38;;;;;;;;;;5056354;28;20049;-89
2023/09/16 06:31:35;;;;;;;16.98;7.82;;;;;;;;;;5055158;28;20052;-88
2023/09/16 06:34:05;;;;;;;6.25;5.18;;;;;;;;;;5039957;28;20049;-89
2023/09/16 06:36:32;;;;;;;41.47;8.88;;;;;;;;;;5052706;28;20053;-88
2023/09/16 06:39:00;;;;;;;23.13;6.88;;;;;;;;;;5038024;28;20053;-90
2023/09/16 06:41:27;;;;;;;7.63;5.28;;;;;;;;;;5054692;28;20239;-89
2023/09/16 06:43:54;;;;;;;5.95;5.35;;;;;;;;;;5058324;28;20049;-90
2023/09/16 06:46:22;;;;;;;15.15;5.50;;;;;;;;;;5037948;28;20057;-90
2023/09/16 06:48:49;;;;;;;7.43;4.13;;;;;;;;;;5037909;28;20049;-91
2023/09/16 06:51:17;;;;;;;25.23;7.22;;;;;;;;;;5037970;28;20045;-89
2023/09/16 06:53:45;;;;;;;30.55;6.72;;;;;;;;;;5029414;28;20106;-89
2023/09/16 06:56:12;;;;;;;28.58;6.45;;;;;;;;;;5037608;28;20470;-89
2023/09/16 06:58:39;;;;;;;20.83;5.80;;;;;;;;;;5055057;28;20111;-89
2023/09/16 07:01:10;;;;;;;20.15;5.63;;;;;;;;;;5055377;28;20053;-88
2023/09/16 07:03:37;;;;;;;10.32;5.10;;;;;;;;;;5038144;28;20136;-88
2023/09/16 07:06:05;;;;;;;8.40;4.47;;;;;;;;;;5039819;28;20059;-90
2023/09/16 07:08:32;;;;;;;21.38;4.85;;;;;;;;;;5059026;28;20049;-91
2023/09/16 07:10:59;;;;;;;17.48;4.90;;;;;;;;;;5038485;28;20057;-90
2023/09/16 07:13:27;;;;;;;9.15;4.30;;;;;;;;;;5037726;28;20099;-91
2023/09/16 07:15:54;;;;;;;3.83;3.35;;;;;;;;;;5033845;28;20111;-90
2023/09/16 07:18:22;;;;;;;4.80;3.15;;;;;;;;;;5050967;28;20052;-90
2023/09/16 07:20:49;;;;;;;3.33;3.03;;;;;;;;;;5055585;28;20095;-91
2023/09/16 07:23:20;;;;;;;3.00;2.80;;;;;;;;;;5041766;28;20049;-88
2023/09/16 07:25:56;;;;;;;6.38;3.13;;;;;;;;;;5043670;28;20662;-89
2023/09/16 07:28:26;;;;;;;5.75;3.20;;;;;;;;;;5058904;28;20045;-89
2023/09/16 07:30:53;;;;;;;4.00;2.80;;;;;;;;;;5044018;28;20048;-90
2023/09/16 07:33:22;;;;;;;3.13;2.80;;;;;;;;;;5042303;28;20045;-90
2023/09/16 07:35:51;;;;;;;5.72;2.90;;;;;;;;;;5036762;28;20072;-89
2023/09/16 07:38:20;;;;;;;6.50;2.78;;;;;;;;;;5054937;28;20132;-90
2023/09/16 07:40:47;;;;;;;5.85;2.95;;;;;;;;;;5037038;28;20288;-90
2023/09/16 07:43:16;;;;;;;2.40;2.28;;;;;;;;;;5036226;28;20110;-91
2023/09/16 07:45:44;;;;;;;4.57;2.50;;;;;;;;;;5037093;28;20390;-90
2023/09/16 07:48:11;;;;;;;4.45;2.50;;;;;;;;;;5037970;28;20045;-89
2023/09/16 07:50:38;;;;;;;3.55;2.50;;;;;;;;;;5035303;28;20083;-89
2023/09/16 07:53:06;;;;;;;17.90;3.00;;;;;;;;;;5035760;28;20049;-89
2023/09/16 07:55:33;;;;;;;4.43;2.28;;;;;;;;;;5036043;28;20102;-89
2023/09/16 07:58:00;;;;;;;11.65;3.50;;;;;;;;;;5041538;28;20075;-88
2023/09/16 08:00:28;;;;;;;15.75;3.20;;;;;;;;;;5068222;28;20521;-88
2023/09/16 08:02:56;;;;;;;13.25;3.25;;;;;;;;;;5033763;28;20052;-88
2023/09/16 08:05:24;;;;;;;16.35;3.65;;;;;;;;;;5049890;28;20059;-89
2023/09/16 08:07:51;;;;;;;9.10;3.17;;;;;;;;;;5032894;28;20490;-89
2023/09/16 08:10:18;;;;;;;8.85;2.60;;;;;;;;;;5049150;28;20057;-89
2023/09/16 08:12:45;;;;;;;20.55;4.00;;;;;;;;;;5027531;28;20044;-88
2023/09/16 08:15:13;;;;;;;10.63;3.42;;;;;;;;;;5036192;28;20415;-88
2023/09/16 08:17:40;;;;;;;15.05;3.13;;;;;;;;;;5035510;28;20103;-89
2023/09/16 08:20:08;;;;;;;10.80;2.72;;;;;;;;;;5036321;28;20055;-88
2023/09/16 08:22:35;;;;;;;8.15;2.38;;;;;;;;;;5035482;28;20053;-89
2023/09/16 08:25:03;;;;;;;6.10;2.40;;;;;;;;;;5035767;28;20141;-88
2023/09/16 08:27:31;;;;;;;12.88;2.72;;;;;;;;;;5036369;28;20072;-88
2023/09/16 08:29:59;;;;;;;11.68;3.15;;;;;;;;;;5036398;28;20053;-88
2023/09/16 08:32:28;;;;;;;8.18;3.03;;;;;;;;;;5033770;28;20119;-88
2023/09/16 08:34:56;;;;;;;6.50;2.20;;;;;;;;;;5027809;28;20141;-89
2023/09/16 08:37:24;;;;;;;6.97;2.38;;;;;;;;;;5035527;28;20080;-88
2023/09/16 08:39:51;;;;;;;10.45;2.22;;;;;;;;;;5035650;28;20057;-88
2023/09/16 08:42:38;;;;;;;7.72;2.63;;;;;;;;;;5027718;28;20149;-88
2023/09/16 08:45:06;;;;;;;6.45;2.20;;;;;;;;;;5052480;28;20060;-88
2023/09/16 08:47:35;;;;;;;4.80;2.45;;;;;;;;;;5035376;28;20402;-90
2023/09/16 08:50:07;;;;;;;3.95;2.22;;;;;;;;;;5035857;28;20048;-87
2023/09/16 08:52:53;;;;;;;2.60;1.77;;;;;;;;;;5035283;28;20551;-88
2023/09/16 08:55:21;;;;;;;3.30;1.98;;;;;;;;;;5039000;28;20099;-88
2023/09/16 08:57:52;;;;;;;3.95;2.00;;;;;;;;;;5039577;28;20428;-90
2023/09/16 09:00:20;;;;;;;1.92;1.73;;;;;;;;;;5039966;28;20541;-88
2023/09/16 09:02:48;;;;;;;1.77;1.67;;;;;;;;;;5039705;28;20048;-88
2023/09/16 09:05:26;;;;;;;3.42;1.45;;;;;;;;;;5041214;28;20053;-88
2023/09/16 09:07:56;;;;;;;3.08;1.70;;;;;;;;;;5057848;28;20559;-88
2023/09/16 09:10:23;;;;;;;2.38;1.58;;;;;;;;;;5040776;28;20083;-89
2023/09/16 09:12:51;;;;;;;3.28;2.80;;;;;;;;;;5040086;28;20085;-88
2023/09/16 09:15:18;;;;;;;2.22;1.60;;;;;;;;;;5059998;28;20057;-88
2023/09/16 09:17:49;;;;;;;1.77;1.67;;;;;;;;;;5050825;28;20052;-88
2023/09/16 09:20:20;;;;;;;5.57;1.58;;;;;;;;;;5040149;28;20053;-88
2023/09/16 09:22:49;;;;;;;1.60;1.50;;;;;;;;;;5031862;28;20052;-88
2023/09/16 09:25:20;;;;;;;2.83;1.55;;;;;;;;;;5039345;28;20046;-87
2023/09/16 09:27:48;;;;;;;2.03;1.40;;;;;;;;;;5039264;28;20048;-87
2023/09/16 09:30:16;;;;;;;1.58;1.35;;;;;;;;;;5056955;28;20499;-88
2023/09/16 09:32:44;;;;;;;2.03;1.08;;;;;;;;;;5038699;28;20103;-90
2023/09/16 09:35:12;;;;;;;1.50;1.40;;;;;;;;;;5056537;28;20052;-89
2023/09/16 09:37:39;;;;;;;3.15;1.30;;;;;;;;;;5038873;28;20065;-90
2023/09/16 09:40:11;;;;;;;1.85;1.30;;;;;;;;;;5056770;28;20051;-88
2023/09/16 09:42:42;;;;;;;3.42;1.48;;;;;;;;;;5038262;28;20053;-88
2023/09/16 09:45:10;;;;;;;0.90;0.90;;;;;;;;;;5038940;28;20053;-88
2023/09/16 09:47:38;;;;;;;1.10;1.10;;;;;;;;;;5038012;28;20049;-86
2023/09/16 09:50:07;;;;;;;1.25;1.20;;;;;;;;;;5022348;28;20053;-88
2023/09/16 09:52:37;;;;;;;2.47;1.27;;;;;;;;;;5038603;28;20049;-88
2023/09/16 09:55:04;;;;;;;1.75;1.33;;;;;;;;;;5038622;28;20383;-88
2023/09/16 09:57:33;;;;;;;1.75;1.27;;;;;;;;;;5038713;28;20378;-88
2023/09/16 10:00:00;;;;;;;2.22;1.27;;;;;;;;;;5038649;28;20485;-88
2023/09/16 10:02:29;;;;;;;1.10;1.10;;;;;;;;;;5036239;28;20060;-88
2023/09/16 10:05:05;;;;;;;1.35;1.25;;;;;;;;;;5037973;28;20049;-88
2023/09/16 10:07:32;;;;;;;0.98;0.98;;;;;;;;;;5055723;28;20048;-88
2023/09/16 10:10:00;;;;;;;1.08;1.00;;;;;;;;;;5038268;28;20099;-90
2023/09/16 10:12:27;;;;;;;1.13;1.08;;;;;;;;;;5056154;28;20059;-88
2023/09/16 10:14:54;;;;;;;1.25;1.15;;;;;;;;;;5038688;28;20097;-89
2023/09/16 10:17:22;;;;;;;1.27;1.27;;;;;;;;;;5038575;28;20053;-88
2023/09/16 10:19:50;;;;;;;1.15;1.00;;;;;;;;;;5038579;28;20405;-88
2023/09/16 10:22:17;;;;;;;1.27;1.17;;;;;;;;;;5038586;28;20049;-88
2023/09/16 10:24:45;;;;;;;1.20;1.10;;;;;;;;;;5038604;28;20049;-87
2023/09/16 10:27:19;;;;;;;2.60;1.10;;;;;;;;;;5056092;28;20045;-87
2023/09/16 10:29:48;;;;;;;9.57;2.38;;;;;;;;;;5038298;28;20493;-86
2023/09/16 10:32:19;;;;;;;6.85;1.42;;;;;;;;;;5039372;28;20044;-87
2023/09/16 10:34:47;;;;;;;2.55;1.80;;;;;;;;;;5044564;28;20053;-90
2023/09/16 10:37:18;;;;;;;4.20;1.50;;;;;;;;;;5038115;28;20052;-88
2023/09/16 10:39:49;;;;;;;1.20;1.20;;;;;;;;;;5055129;28;20053;-87
2023/09/16 10:42:17;;;;;;;1.38;1.30;;;;;;;;;;5037700;28;20049;-87
2023/09/16 10:44:45;;;;;;;2.25;1.30;;;;;;;;;;5038095;28;20053;-89
2023/09/16 10:47:12;;;;;;;2.35;1.20;;;;;;;;;;5038179;28;20049;-88
2023/09/16 10:49:40;;;;;;;2.42;1.40;;;;;;;;;;5037723;28;20056;-87
2023/09/16 10:52:09;;;;;;;1.40;1.30;;;;;;;;;;5055634;28;20068;-88
2023/09/16 10:54:44;;;;;;;1.40;1.40;;;;;;;;;;5037085;28;20077;-89
2023/09/16 10:57:17;;;;;;;1.58;1.50;;;;;;;;;;5037678;28;20067;-88
2023/09/16 10:59:47;;;;;;;1.40;1.40;;;;;;;;;;5036772;28;20049;-86
2023/09/16 11:02:46;;;;;;;1.38;1.38;;;;;;;;;;5049759;28;20084;-87
2023/09/16 11:05:14;;;;;;;1.88;1.50;;;;;;;;;;5053484;28;20048;-88
2023/09/16 11:07:41;;;;;;;1.63;1.33;;;;;;;;;;5037505;28;20512;-87
2023/09/16 11:10:09;;;;;;;2.00;1.80;;;;;;;;;;5037522;28;20497;-87
2023/09/16 11:12:37;;;;;;;4.43;1.42;;;;;;;;;;5036230;28;20056;-87
2023/09/16 11:15:11;;;;;;;1.58;1.48;;;;;;;;;;5037121;28;20090;-87
2023/09/16 11:17:39;;;;;;;;;;;;;;;;;;5037370;28;20053;-86
2023/09/16 11:20:13;;;;;;;1.67;1.20;;;;;;;;;;5054645;28;19924;-86
2023/09/16 11:22:47;;;;;;;2.20;1.75;;;;;;;;;;5037806;28;20056;-87
2023/09/16 11:25:15;;;;;;;1.88;1.40;;;;;;;;;;5037181;28;20045;-87
2023/09/16 11:27:50;;;;;;;1.95;1.75;;;;;;;;;;5030968;28;20120;-87
2023/09/16 11:30:18;;;;;;;1.30;1.30;;;;;;;;;;5054096;28;20060;-88
2023/09/16 11:32:54;;;;;;;1.58;1.25;;;;;;;;;;5054750;28;20453;-88
2023/09/16 11:35:23;;;;;;;1.08;1.05;;;;;;;;;;5054121;28;20056;-87
2023/09/16 11:37:50;;;;;;;1.45;1.45;;;;;;;;;;5036611;28;20415;-87
2023/09/16 11:40:18;;;;;;;2.58;1.27;;;;;;;;;;5031675;28;20041;-87
2023/09/16 11:42:47;;;;;;;2.60;1.48;;;;;;;;;;5029781;28;20041;-88
2023/09/16 11:45:17;;;;;;;4.65;1.50;;;;;;;;;;5038088;28;20060;-88
2023/09/16 11:47:47;;;;;;;2.08;1.30;;;;;;;;;;5037953;28;20068;-89
2023/09/16 11:50:22;;;;;;;1.20;1.20;;;;;;;;;;5037601;28;20060;-87
2023/09/16 11:52:49;;;;;;;2.47;1.30;;;;;;;;;;5064882;28;20033;-88
2023/09/16 11:55:17;;;;;;;2.15;1.88;;;;;;;;;;5037840;28;20129;-88
2023/09/16 11:57:45;;;;;;;1.60;1.50;;;;;;;;;;5053645;28;20052;-87
2023/09/16 12:00:13;;;;;;;1.20;1.20;;;;;;;;;;5036301;28;20041;-87
2023/09/16 12:02:41;;;;;;;3.78;1.23;;;;;;;;;;5036147;28;20450;-87
2023/09/16 12:05:12;;;;;;;1.55;1.45;;;;;;;;;;5036398;28;20051;-88
2023/09/16 12:07:39;;;;;;;3.42;1.58;;;;;;;;;;5035434;28;20140;-86
2023/09/16 12:10:07;;;;;;;1.60;1.50;;;;;;;;;;5053688;28;20555;-86
2023/09/16 12:12:34;;;;;;;1.63;1.50;;;;;;;;;;5035982;28;20045;-87
2023/09/16 12:15:02;;;;;;;1.83;1.42;;;;;;;;;;5035953;28;20081;-88
2023/09/16 12:17:30;;;;;;;1.60;1.50;;;;;;;;;;5053939;28;20072;-87
2023/09/16 12:19:57;;;;;;;1.20;1.20;;;;;;;;;;5036010;28;20053;-88
2023/09/16 12:22:24;;;;;;;1.45;1.35;;;;;;;;;;5036396;28;20075;-87
2023/09/16 12:24:53;;;;;;;5.90;1.92;;;;;;;;;;5035960;28;20041;-88
2023/09/16 12:27:20;;;;;;;6.18;1.65;;;;;;;;;;5053590;28;20139;-86
2023/09/16 12:29:48;;;;;;;4.43;1.45;;;;;;;;;;5035480;28;20072;-87
2023/09/16 12:32:17;;;;;;;4.80;1.48;;;;;;;;;;5052999;28;20053;-85
2023/09/16 12:34:45;;;;;;;1.75;1.65;;;;;;;;;;5052707;28;20110;-87
2023/09/16 12:37:13;;;;;;;1.52;1.02;;;;;;;;;;5053222;28;20473;-85
2023/09/16 12:39:41;;;;;;;1.42;1.30;;;;;;;;;;5035743;28;20142;-87
2023/09/16 12:42:08;;;;;;;1.30;1.30;;;;;;;;;;5036030;28;20079;-87
2023/09/16 12:44:43;;;;;;;1.30;1.30;;;;;;;;;;5036961;28;20083;-87
2023/09/16 12:47:10;;;;;;;4.07;1.83;;;;;;;;;;5036027;28;20118;-87
2023/09/16 12:49:38;;;;;;;1.23;1.20;;;;;;;;;;5035571;28;20389;-87
2023/09/16 12:52:07;;;;;;;2.35;1.67;;;;;;;;;;5031865;28;20405;-86
2023/09/16 12:54:34;;;;;;;1.67;1.40;;;;;;;;;;5050855;28;20564;-88
2023/09/16 12:57:07;;;;;;;1.17;1.13;;;;;;;;;;5053152;28;20057;-87
2023/09/16 12:59:35;;;;;;;1.45;1.35;;;;;;;;;;5035825;28;20052;-87
2023/09/16 13:02:03;;;;;;;1.40;1.30;;;;;;;;;;5032469;28;20493;-87
2023/09/16 13:04:31;;;;;;;1.10;1.10;;;;;;;;;;5051719;28;20102;-88
2023/09/16 13:06:59;;;;;;;1.20;1.20;;;;;;;;;;5036738;28;20131;-87
2023/09/16 13:09:30;;;;;;;2.13;0.95;;;;;;;;;;5056675;28;20052;-87
2023/09/16 13:11:58;;;;;;;1.15;1.05;;;;;;;;;;5042449;28;20053;-88
2023/09/16 13:14:26;;;;;;;0.82;0.82;;;;;;;;;;5049731;28;20106;-87
2023/09/16 13:16:55;;;;;;;2.80;1.45;;;;;;;;;;5052945;28;20493;-84
2023/09/16 13:19:22;;;;;;;5.93;1.52;;;;;;;;;;5035525;28;20405;-88
2023/09/16 13:21:50;;;;;;;3.08;1.30;;;;;;;;;;5053347;28;20044;-87
2023/09/16 13:24:17;;;;;;;0.98;0.98;;;;;;;;;;5035780;28;20080;-87
2023/09/16 13:26:55;;;;;;;1.20;1.10;;;;;;;;;;5035522;28;20041;-86
2023/09/16 13:29:22;;;;;;;1.20;1.20;;;;;;;;;;5035684;28;20417;-86
2023/09/16 13:32:00;;;;;;;3.50;1.40;;;;;;;;;;5032405;28;20418;-86
2023/09/16 13:34:41;;;;;;;1.02;1.02;;;;;;;;;;5050699;28;20131;-87
2023/09/16 13:37:08;;;;;;;1.25;1.23;;;;;;;;;;5035471;28;20551;-87
2023/09/16 13:39:45;;;;;;;1.45;0.70;;;;;;;;;;5035404;28;20132;-86
2023/09/16 13:42:13;;;;;;;1.00;1.00;;;;;;;;;;5038680;28;20081;-87
2023/09/16 13:44:46;;;;;;;1.80;1.20;;;;;;;;;;5038841;28;20056;-87
2023/09/16 13:47:14;;;;;;;1.33;1.23;;;;;;;;;;5039328;28;20055;-87
2023/09/16 13:49:41;;;;;;;2.33;1.48;;;;;;;;;;5038921;28;20061;-86
2023/09/16 13:52:09;;;;;;;2.00;1.30;;;;;;;;;;5037951;28;20103;-87
2023/09/16 13:54:36;;;;;;;5.90;2.60;;;;;;;;;;5039281;28;20130;-88
2023/09/16 13:57:04;;;;;;;1.15;1.10;;;;;;;;;;5038913;28;20049;-86
2023/09/16 13:59:31;;;;;;;1.63;1.38;;;;;;;;;;5038701;28;20052;-87
2023/09/16 14:01:58;;;;;;;1.10;1.10;;;;;;;;;;5039119;28;20477;-86
2023/09/16 14:04:25;;;;;;;1.85;1.73;;;;;;;;;;5038743;28;20055;-87
2023/09/16 14:06:53;;;;;;;1.20;1.10;;;;;;;;;;5038968;28;20061;-87
2023/09/16 14:09:20;;;;;;;5.40;1.65;;;;;;;;;;5036024;28;20053;-87
2023/09/16 14:11:47;;;;;;;25.45;2.72;;;;;;;;;;5039069;28;20516;-87
2023/09/16 14:14:15;;;;;;;1.85;1.27;;;;;;;;;;5039744;28;20095;-87
2023/09/16 14:16:42;;;;;;;21.70;3.75;;;;;;;;;;5039436;28;20040;-87
2023/09/16 14:19:09;;;;;;;43.50;5.70;;;;;;;;;;5039099;28;20049;-87
2023/09/16 14:21:37;;;;;;;3.75;2.35;;;;;;;;;;5039334;28;20041;-87
2023/09/16 14:24:04;;;;;;;3.78;1.60;;;;;;;;;;5039378;28;20439;-87
2023/09/16 14:26:34;;;;;;;12.95;1.55;;;;;;;;;;5039896;28;20057;-87
2023/09/16 14:29:01;;;;;;;6.15;1.92;;;;;;;;;;5045660;28;20052;-87
2023/09/16 14:31:30;;;;;;;3.25;1.52;;;;;;;;;;5056339;28;20049;-88
2023/09/16 14:33:58;;;;;;;2.58;1.23;;;;;;;;;;5034929;28;20104;-87
2023/09/16 14:36:25;;;;;;;1.25;1.20;;;;;;;;;;5052054;28;20470;-87
2023/09/16 14:38:52;;;;;;;1.25;1.15;;;;;;;;;;5037535;28;20114;-88
2023/09/16 14:41:20;;;;;;;1.35;1.25;;;;;;;;;;5038078;28;20495;-87
2023/09/16 14:43:47;;;;;;;1.40;1.30;;;;;;;;;;5030744;28;20048;-87
2023/09/16 14:46:15;;;;;;;1.30;1.20;;;;;;;;;;5038321;28;20071;-89